Time;durP1;ratioP1;P1;durP2;ratioP2;P2;SDS_P1;SDS_P2;PMS_P1;PMS_P2;Temp;Humidity;BMP_temperature;BMP_pressure;BME280_temperature;BME280_humidity;BME280_pressure;Samples;Min_cycle;Max_cycle;Signal;HPM_P1;HPM_P2
2023/11/30 00:09:09;;;;;;;65.00;22.60;;;;;;;-1.15;76.61;99198.05;682719;1262;140974;-80
2023/11/30 00:24:48;;;;;;;68.40;24.60;;;;;;;-1.03;75.61;99194.64;682274;1263;139486;-80
2023/11/30 00:40:25;;;;;;;66.90;24.50;;;;;;;-1.31;75.34;99190.85;682989;1273;22356;-80
2023/11/30 00:56:03;;;;;;;66.30;23.50;;;;;;;-1.61;75.20;99196.98;682983;1258;22178;-80
2023/11/30 01:11:52;;;;;;;134.40;39.60;;;;;;;-1.97;74.87;99192.39;682950;1263;22156;-79
2023/11/30 01:27:32;;;;;;;78.80;24.70;;;;;;;-2.26;74.31;99196.14;682895;1263;23336;-79
2023/11/30 01:43:30;;;;;;;71.80;28.70;;;;;;;-2.42;74.68;99185.18;682720;1260;139194;-79
2023/11/30 01:59:08;;;;;;;70.50;24.20;;;;;;;-2.39;74.81;99171.14;682950;1262;139789;-79
2023/11/30 02:14:45;;;;;;;149.60;41.80;;;;;;;-2.37;74.57;99158.68;683014;1261;22175;-79
2023/11/30 02:30:22;;;;;;;82.80;28.60;;;;;;;-2.60;74.64;99155.41;683209;1262;22196;-79
2023/11/30 02:45:59;;;;;;;113.70;35.60;;;;;;;-2.75;75.60;99152.10;683183;1262;22841;-80
2023/11/30 03:01:36;;;;;;;100.70;32.70;;;;;;;-2.16;76.01;99147.83;683524;1257;22158;-80
2023/11/30 03:17:13;;;;;;;80.30;26.80;;;;;;;-1.88;76.06;99144.63;683550;1261;22216;-80
2023/11/30 03:32:50;;;;;;;80.10;28.40;;;;;;;-1.36;76.29;99132.11;683176;1260;22950;-80
2023/11/30 03:48:27;;;;;;;75.20;27.90;;;;;;;-1.48;76.49;99125.60;683115;1259;22129;-80
2023/11/30 04:04:04;;;;;;;80.70;29.20;;;;;;;-1.29;77.21;99125.39;683605;1258;23318;-80
2023/11/30 04:19:41;;;;;;;68.50;26.40;;;;;;;-0.96;77.77;99115.95;683194;1257;22488;-80
2023/11/30 04:35:38;;;;;;;89.20;30.70;;;;;;;-0.72;78.03;99109.73;683014;1259;22103;-80
2023/11/30 04:51:15;;;;;;;85.50;30.60;;;;;;;-0.71;78.78;99108.77;683221;1258;22648;-80
2023/11/30 05:06:52;;;;;;;112.80;38.70;;;;;;;-0.63;79.42;99098.88;675697;1260;10141528;-79
2023/11/30 05:22:43;;;;;;;92.40;34.40;;;;;;;-0.64;80.58;99099.80;683527;1260;22258;-79
2023/11/30 05:38:20;;;;;;;72.90;28.20;;;;;;;-0.36;80.35;99090.89;683295;1260;139167;-79
2023/11/30 05:53:57;;;;;;;78.20;30.00;;;;;;;-0.33;80.20;99096.86;682348;1258;142082;-79
2023/11/30 06:09:34;;;;;;;89.10;32.70;;;;;;;-0.42;80.85;99094.54;682983;1257;139742;-80
2023/11/30 06:25:12;;;;;;;79.70;28.20;;;;;;;-0.38;81.64;99088.39;682832;1260;140776;-80
2023/11/30 06:40:50;;;;;;;92.70;39.30;;;;;;;0.09;81.89;99095.99;682918;1263;140138;-79
2023/11/30 06:56:27;;;;;;;82.30;29.80;;;;;;;0.26;81.64;99098.71;682989;1260;142237;-79
2023/11/30 07:12:05;;;;;;;88.60;37.20;;;;;;;0.23;82.47;99105.43;682725;1262;140171;-79
2023/11/30 07:27:44;;;;;;;80.60;33.00;;;;;;;0.58;82.46;99111.58;682537;1260;140296;-79
2023/11/30 07:43:22;;;;;;;80.70;35.00;;;;;;;0.78;82.42;99131.15;682519;1263;140074;-80
2023/11/30 07:58:59;;;;;;;117.90;49.70;;;;;;;0.84;83.07;99133.13;682835;1261;139861;-79
2023/11/30 08:14:36;;;;;;;98.70;44.40;;;;;;;1.12;83.24;99135.79;682706;1260;139838;-79
2023/11/30 08:30:14;;;;;;;98.30;41.60;;;;;;;1.12;83.48;99142.67;682349;1262;139981;-79
2023/11/30 08:45:51;;;;;;;79.30;32.80;;;;;;;1.22;83.69;99155.45;682431;1259;139166;-78
2023/11/30 09:01:28;;;;;;;79.70;32.50;;;;;;;1.45;84.41;99158.17;682551;1262;139554;-79
2023/11/30 09:17:05;;;;;;;;;;;;;;;1.81;84.18;99160.38;682747;1260;139266;-79
2023/11/30 09:32:42;;;;;;;74.80;31.40;;;;;;;1.89;84.96;99156.41;682771;1260;125513;-79
2023/11/30 09:48:20;;;;;;;78.20;33.70;;;;;;;2.19;84.51;99150.69;682722;1260;140527;-79
2023/11/30 10:03:57;;;;;;;83.00;38.80;;;;;;;2.24;84.35;99138.91;682719;1263;139622;-79
2023/11/30 10:19:34;;;;;;;83.00;34.00;;;;;;;2.50;84.11;99132.80;682486;1262;140780;-80
2023/11/30 10:35:13;;;;;;;73.60;35.20;;;;;;;2.45;84.55;99117.40;682560;1263;139978;-79
2023/11/30 10:50:50;;;;;;;448.60;151.90;;;;;;;2.50;85.00;99116.68;682786;1262;140225;-80
2023/11/30 11:06:31;;;;;;;96.10;53.90;;;;;;;2.59;85.29;99109.48;682376;1265;140648;-80
2023/11/30 11:22:26;;;;;;;94.00;39.30;;;;;;;3.03;85.01;99100.03;682325;1265;139866;-79
2023/11/30 11:37:57;;;;;;;79.90;33.60;;;;;;;3.37;83.69;99096.57;682197;1260;139712;-78
2023/11/30 11:53:20;;;;;;;78.10;36.40;;;;;;;3.20;82.77;99099.77;681969;1263;140544;-79
2023/11/30 12:08:57;;;;;;;52.20;23.50;;;;;;;3.04;82.59;99096.48;682130;1265;140068;-79
2023/11/30 12:24:22;;;;;;;55.20;22.40;;;;;;;3.00;82.32;99097.67;682081;1263;140563;-79
2023/11/30 12:39:26;;;;;;;54.40;25.80;;;;;;;3.01;81.62;99096.73;682367;1263;140169;-79
2023/11/30 12:54:29;;;;;;;86.00;33.70;;;;;;;2.93;81.53;99099.70;682600;1263;139881;-80
2023/11/30 13:09:34;;;;;;;48.10;21.70;;;;;;;2.98;81.12;99104.02;682152;1264;140175;-80
2023/11/30 13:24:40;;;;;;;72.90;27.20;;;;;;;2.79;80.95;99105.94;682631;1263;140129;-80
2023/11/30 13:39:44;;;;;;;308.60;72.90;;;;;;;2.62;81.15;99102.23;681994;1260;139827;-80
2023/11/30 13:54:47;;;;;;;129.10;43.10;;;;;;;2.74;81.00;99099.93;682449;1263;139012;-81
2023/11/30 14:09:51;;;;;;;92.20;37.90;;;;;;;2.61;80.28;99103.50;682535;1263;140012;-81
2023/11/30 14:24:55;;;;;;;106.40;30.00;;;;;;;2.48;79.09;99107.68;682496;1263;140407;-80
2023/11/30 14:39:58;;;;;;;74.20;26.20;;;;;;;2.33;78.17;99113.98;682409;1262;139552;-81
2023/11/30 14:55:01;;;;;;;187.20;49.20;;;;;;;2.22;78.22;99120.80;682184;1263;139592;-81
2023/11/30 15:10:07;;;;;;;308.60;68.50;;;;;;;2.11;78.39;99124.64;682352;1262;140542;-81
2023/11/30 15:25:17;;;;;;;169.50;46.60;;;;;;;2.10;78.22;99119.41;682383;1263;140940;-80
2023/11/30 15:40:21;;;;;;;139.80;38.40;;;;;;;1.95;78.49;99122.14;682634;1261;139980;-81
2023/11/30 15:55:25;;;;;;;117.90;35.40;;;;;;;1.91;78.57;99126.94;682396;1263;140202;-81
2023/11/30 16:10:28;;;;;;;62.10;23.80;;;;;;;1.98;77.51;99133.86;682680;1270;139563;-80
2023/11/30 16:25:34;;;;;;;111.00;33.60;;;;;;;1.81;77.90;99128.45;682502;1263;141370;-80
2023/11/30 16:40:37;;;;;;;143.00;39.10;;;;;;;1.74;77.89;99136.94;682477;1265;140744;-80
2023/11/30 16:55:41;;;;;;;78.60;27.90;;;;;;;1.63;78.15;99133.17;682418;1265;140238;-80
2023/11/30 17:10:46;;;;;;;55.30;21.70;;;;;;;1.67;78.08;99132.38;681963;1264;489538;-80
2023/11/30 17:25:49;;;;;;;55.80;26.60;;;;;;;1.70;77.97;99125.31;682162;1263;139198;-80
2023/11/30 17:40:53;;;;;;;68.00;25.90;;;;;;;1.63;77.86;99127.32;682358;1261;139659;-80
2023/11/30 17:55:56;;;;;;;53.50;21.80;;;;;;;1.64;77.92;99131.56;682176;1260;141695;-80
2023/11/30 18:10:59;;;;;;;48.50;19.80;;;;;;;1.65;78.09;99132.22;682382;1261;139896;-81
2023/11/30 18:26:03;;;;;;;49.40;21.70;;;;;;;1.36;78.37;99124.17;682373;1262;139950;-81
2023/11/30 18:41:06;;;;;;;41.60;21.50;;;;;;;1.21;78.38;99129.50;682488;1260;139594;-81
2023/11/30 18:56:10;;;;;;;40.90;18.20;;;;;;;0.86;78.18;99126.10;682243;1260;139548;-81
2023/11/30 19:11:16;;;;;;;39.60;19.20;;;;;;;0.89;78.44;99121.64;682416;1263;139109;-81
2023/11/30 19:26:20;;;;;;;187.20;68.20;;;;;;;0.64;79.19;99124.13;682462;1263;139277;-80
2023/11/30 19:41:23;;;;;;;57.80;23.00;;;;;;;0.47;78.98;99125.75;682480;1260;140773;-80
2023/11/30 19:56:28;;;;;;;53.60;22.10;;;;;;;0.34;78.62;99120.69;682272;1263;139472;-80
2023/11/30 20:11:31;;;;;;;131.60;51.30;;;;;;;0.21;79.22;99118.30;682433;1260;140300;-80
2023/11/30 20:26:39;;;;;;;151.70;52.90;;;;;;;0.42;79.21;99116.42;682364;1260;140147;-81
2023/11/30 20:41:43;;;;;;;68.60;28.30;;;;;;;0.73;77.29;99104.09;682586;1259;139552;-80
2023/11/30 20:56:48;;;;;;;49.30;22.40;;;;;;;0.25;77.42;99107.86;682238;1263;139978;-80
2023/11/30 21:11:54;;;;;;;85.30;26.40;;;;;;;0.14;77.33;99115.09;682598;1260;139501;-80
2023/11/30 21:26:57;;;;;;;;;;;;;;;0.21;76.68;99111.23;682358;1260;139128;-80
2023/11/30 21:42:01;;;;;;;60.80;22.30;;;;;;;-0.16;76.79;99107.19;682550;1258;126154;-81
2023/11/30 21:57:04;;;;;;;44.90;20.60;;;;;;;-0.44;77.60;99106.32;682310;1263;139394;-81
2023/11/30 22:12:08;;;;;;;55.90;23.20;;;;;;;-0.55;78.59;99126.20;682650;1259;140879;-79
2023/11/30 22:27:12;;;;;;;67.10;25.70;;;;;;;-0.26;78.46;99133.38;682400;1259;140116;-79
2023/11/30 22:42:15;;;;;;;102.60;34.60;;;;;;;-0.17;79.13;99124.75;682622;1260;140091;-78
2023/11/30 22:57:18;;;;;;;60.40;22.20;;;;;;;-0.29;78.83;99125.65;682502;1260;140330;-80
2023/11/30 23:12:22;;;;;;;66.10;25.20;;;;;;;-0.41;78.88;99118.86;682756;1262;139895;-79
2023/11/30 23:27:25;;;;;;;91.70;29.90;;;;;;;-0.51;79.07;99124.80;682475;1263;140258;-79
2023/11/30 23:42:28;;;;;;;61.60;24.80;;;;;;;-0.64;79.48;99122.96;682357;1264;140052;-79
2023/11/30 23:57:32;;;;;;;72.50;25.50;;;;;;;-0.75;79.26;99116.39;682528;1262;140279;-79
